Saint Peters Bay, Canada
Current Conditions -  °F | °C
As of 1:00 PM on Friday 19 Dec 2014 (Local Time) from CYYG Reporting Station
Snow Showers Snow Showers  
Wind Chill: 21°   Ceiling: 800
Heat Index: 30°   Visibility: 1.7mi
Dew Point: 28°   Wind: 10mph
Humidity: 93%   Direction: 320°NW
Pressure: 29.66"   Gusts: 23mph
Location:  46.42°N, 62.57°W
Report Text: CYYG 191700Z 32009G20KT 1 3/4SM -SHSN OVC008 M01/M02 A2966 RMK SN2SF6 SLP046
Loading
Personal Weather Stations






























Interactive Weather Map New forecast layout! Learn more

10-Day Weather Forecast

Advertisements
Track Severe Weather on mobile